createdAt,value
2022-09-10T00:00:08.405Z,0.70
2022-09-10T00:00:20.841Z,0.70
2022-09-10T00:00:32.571Z,0.60
2022-09-10T00:00:43.372Z,0.60
2022-09-10T00:00:55.881Z,0.70
2022-09-10T00:01:07.622Z,0.80
2022-09-10T00:01:18.442Z,0.70
2022-09-10T00:01:30.241Z,0.50
2022-09-10T00:01:42.005Z,0.50
2022-09-10T00:01:52.827Z,0.50
2022-09-10T00:02:03.615Z,0.60
2022-09-10T00:02:15.646Z,0.60
2022-09-10T00:02:26.398Z,0.60
2022-09-10T00:02:37.255Z,0.60
2022-09-10T00:02:50.498Z,0.70
2022-09-10T00:03:02.757Z,1.00
2022-09-10T00:03:14.527Z,1.00
2022-09-10T00:03:26.985Z,0.90
2022-09-10T00:03:37.722Z,0.70
2022-09-10T00:03:50.230Z,0.50
2022-09-10T00:04:01.943Z,0.50
2022-09-10T00:04:13.714Z,0.50
2022-09-10T00:04:26.213Z,0.60
2022-09-10T00:04:37.984Z,0.70
2022-09-10T00:04:48.788Z,0.70
2022-09-10T00:04:59.553Z,0.80
2022-09-10T00:05:10.323Z,0.70
2022-09-10T00:05:21.082Z,0.70
2022-09-10T00:05:33.543Z,0.70
2022-09-10T00:05:44.305Z,0.60
2022-09-10T00:05:56.043Z,0.60
2022-09-10T00:06:06.833Z,0.50
2022-09-10T00:06:17.601Z,0.80
2022-09-10T00:06:28.353Z,0.80
2022-09-10T00:06:40.064Z,0.90
2022-09-10T00:06:50.849Z,0.60
2022-09-10T00:07:01.624Z,0.60
2022-09-10T00:07:13.326Z,0.70
2022-09-10T00:07:25.086Z,0.60
2022-09-10T00:07:38.475Z,0.60
2022-09-10T00:07:50.214Z,0.50
2022-09-10T00:08:02.693Z,0.90
2022-09-10T00:08:13.460Z,1.00
2022-09-10T00:08:24.237Z,1.00
2022-09-10T00:08:35.052Z,0.70
2022-09-10T00:08:45.817Z,0.70
2022-09-10T00:08:56.647Z,0.70
2022-09-10T00:09:07.453Z,0.80
2022-09-10T00:09:18.235Z,1.20
2022-09-10T00:09:29.979Z,1.10
2022-09-10T00:09:40.744Z,1.00
2022-09-10T00:09:51.495Z,0.80
2022-09-10T00:10:03.943Z,0.60
2022-09-10T00:10:17.646Z,0.50
2022-09-10T00:10:28.395Z,0.60
2022-09-10T00:10:40.869Z,0.70
2022-09-10T00:10:52.566Z,0.60
2022-09-10T00:11:05.987Z,0.60
2022-09-10T00:11:17.706Z,0.70
2022-09-10T00:11:28.511Z,0.60
2022-09-10T00:11:40.215Z,0.70
2022-09-10T00:11:51.957Z,0.80
2022-09-10T00:12:04.254Z,0.80
2022-09-10T00:12:16.677Z,0.80
2022-09-10T00:12:27.447Z,0.70
2022-09-10T00:12:38.207Z,0.50
2022-09-10T00:12:49.947Z,0.50
2022-09-10T00:13:00.755Z,0.60
2022-09-10T00:13:11.515Z,0.70
2022-09-10T00:13:22.285Z,0.70
2022-09-10T00:13:33.084Z,0.50
2022-09-10T00:13:43.836Z,0.50
2022-09-10T00:13:54.606Z,0.70
2022-09-10T00:14:05.386Z,0.70
2022-09-10T00:14:16.149Z,0.90
2022-09-10T00:14:27.856Z,0.90
2022-09-10T00:14:38.618Z,0.80
2022-09-10T00:14:51.078Z,0.60
2022-09-10T00:15:03.288Z,0.50
2022-09-10T00:15:14.050Z,0.50
2022-09-10T00:15:24.807Z,0.60
2022-09-10T00:15:35.564Z,0.60
2022-09-10T00:15:46.319Z,0.60
2022-09-10T00:15:57.121Z,0.60
2022-09-10T00:16:07.929Z,0.80
2022-09-10T00:16:19.668Z,0.90
2022-09-10T00:16:30.450Z,0.90
2022-09-10T00:16:42.161Z,0.60
2022-09-10T00:16:52.896Z,0.50
2022-09-10T00:17:03.667Z,0.80
2022-09-10T00:17:17.906Z,0.90
2022-09-10T00:17:28.726Z,0.70
2022-09-10T00:17:40.427Z,0.60
2022-09-10T00:17:52.899Z,0.70
2022-09-10T00:18:05.119Z,0.80
2022-09-10T00:18:15.898Z,0.70
2022-09-10T00:18:27.609Z,0.60
2022-09-10T00:18:38.474Z,0.40
2022-09-10T00:18:50.227Z,0.60
2022-09-10T00:19:00.998Z,0.50
2022-09-10T00:19:11.813Z,0.70
2022-09-10T00:19:24.263Z,0.70
2022-09-10T00:19:36.018Z,0.80
2022-09-10T00:19:46.771Z,0.70
2022-09-10T00:19:57.542Z,0.70
2022-09-10T00:20:08.297Z,0.70
2022-09-10T00:20:20.479Z,0.70
2022-09-10T00:20:31.249Z,0.70
2022-09-10T00:20:42.019Z,0.70
2022-09-10T00:20:52.771Z,0.80
2022-09-10T00:21:03.551Z,0.80
2022-09-10T00:21:14.314Z,0.70
2022-09-10T00:21:26.548Z,0.60
2022-09-10T00:21:37.314Z,0.50
2022-09-10T00:21:48.081Z,0.60
2022-09-10T00:21:59.830Z,0.50
2022-09-10T00:22:12.330Z,0.70
2022-09-10T00:22:24.030Z,0.70
2022-09-10T00:22:36.496Z,0.70
2022-09-10T00:22:48.970Z,0.60
2022-09-10T00:22:59.753Z,0.80
2022-09-10T00:23:10.489Z,0.80
2022-09-10T00:23:22.230Z,0.90
2022-09-10T00:23:33.970Z,0.70
2022-09-10T00:23:44.720Z,0.60
2022-09-10T00:23:56.724Z,0.60
2022-09-10T00:24:08.471Z,0.60
2022-09-10T00:24:19.219Z,0.60
2022-09-10T00:24:29.960Z,0.50
2022-09-10T00:24:41.661Z,0.60
2022-09-10T00:24:52.421Z,0.50
2022-09-10T00:25:07.626Z,0.40
2022-09-10T00:25:18.802Z,0.60
2022-09-10T00:25:29.545Z,0.80
2022-09-10T00:25:40.280Z,0.90
2022-09-10T00:25:51.048Z,0.90
2022-09-10T00:26:01.792Z,0.90
2022-09-10T00:26:13.520Z,0.90
2022-09-10T00:26:26.231Z,0.70
2022-09-10T00:26:36.982Z,0.90
2022-09-10T00:26:47.791Z,0.80
2022-09-10T00:26:59.481Z,0.70
2022-09-10T00:27:10.263Z,0.90
2022-09-10T00:27:21.051Z,0.70
2022-09-10T00:27:33.514Z,0.80
2022-09-10T00:27:44.273Z,0.80
2022-09-10T00:27:57.485Z,0.90
2022-09-10T00:28:09.961Z,0.80
2022-09-10T00:28:23.174Z,0.70
2022-09-10T00:28:33.953Z,0.60
2022-09-10T00:28:47.162Z,0.60
2022-09-10T00:28:57.891Z,0.70
2022-09-10T00:29:08.651Z,0.80
2022-09-10T00:29:19.431Z,0.80
2022-09-10T00:29:30.191Z,0.80
2022-09-10T00:29:40.941Z,0.70
2022-09-10T00:29:52.654Z,0.60
2022-09-10T00:30:03.431Z,0.60
2022-09-10T00:30:14.211Z,0.70
2022-09-10T00:30:24.990Z,0.70
2022-09-10T00:30:37.198Z,0.70
2022-09-10T00:30:50.413Z,0.70
2022-09-10T00:31:02.874Z,0.70
2022-09-10T00:31:14.623Z,0.50
2022-09-10T00:31:25.453Z,0.70
2022-09-10T00:31:37.282Z,0.70
2022-09-10T00:31:49.541Z,0.70
2022-09-10T00:32:02.773Z,0.70
2022-09-10T00:32:15.271Z,0.70
2022-09-10T00:32:26.033Z,0.80
2022-09-10T00:32:36.812Z,0.70
2022-09-10T00:32:47.563Z,0.80
2022-09-10T00:32:58.336Z,0.90
2022-09-10T00:33:10.086Z,0.70
2022-09-10T00:33:20.886Z,0.90
2022-09-10T00:33:31.633Z,0.70
2022-09-10T00:33:43.853Z,0.70
2022-09-10T00:33:54.644Z,0.70
2022-09-10T00:34:06.843Z,0.70
2022-09-10T00:34:17.635Z,0.90
2022-09-10T00:34:30.053Z,1.00
2022-09-10T00:34:40.808Z,0.80
2022-09-10T00:34:53.254Z,0.80
2022-09-10T00:35:04.998Z,0.70
2022-09-10T00:35:15.764Z,0.90
2022-09-10T00:35:26.515Z,0.90
2022-09-10T00:35:38.952Z,0.90
2022-09-10T00:35:49.722Z,0.60
2022-09-10T00:36:02.148Z,0.60
2022-09-10T00:36:12.898Z,0.70
2022-09-10T00:36:23.636Z,0.80
2022-09-10T00:36:34.435Z,0.90
2022-09-10T00:36:46.165Z,0.80
2022-09-10T00:36:56.901Z,0.80
2022-09-10T00:37:07.673Z,0.90
2022-09-10T00:37:19.395Z,0.80
2022-09-10T00:37:30.181Z,0.90
2022-09-10T00:37:41.885Z,0.80
2022-09-10T00:37:52.724Z,0.80
2022-09-10T00:38:05.976Z,0.70
2022-09-10T00:38:17.687Z,0.90
2022-09-10T00:38:28.435Z,0.80
2022-09-10T00:38:40.134Z,0.80
2022-09-10T00:38:51.902Z,0.60
2022-09-10T00:39:04.356Z,0.60
2022-09-10T00:39:15.124Z,0.60
2022-09-10T00:39:25.875Z,0.50
2022-09-10T00:39:36.668Z,0.50
2022-09-10T00:39:47.454Z,0.70
2022-09-10T00:39:58.226Z,0.70
2022-09-10T00:40:09.944Z,0.70
2022-09-10T00:40:21.645Z,0.70
2022-09-10T00:40:34.162Z,0.70
2022-09-10T00:40:45.849Z,0.60
2022-09-10T00:40:56.635Z,0.60
2022-09-10T00:41:09.096Z,0.60
2022-09-10T00:41:19.911Z,0.60
2022-09-10T00:41:30.688Z,0.70
2022-09-10T00:41:42.437Z,0.80
2022-09-10T00:41:53.226Z,0.70
2022-09-10T00:42:03.981Z,0.70
2022-09-10T00:42:14.776Z,0.70
2022-09-10T00:42:27.492Z,0.70
2022-09-10T00:42:39.197Z,0.80
2022-09-10T00:42:51.706Z,0.90
2022-09-10T00:43:03.468Z,0.80
2022-09-10T00:43:15.196Z,0.80
2022-09-10T00:43:25.987Z,0.70
2022-09-10T00:43:37.048Z,0.60
2022-09-10T00:43:48.779Z,0.60
2022-09-10T00:44:01.017Z,0.70
2022-09-10T00:44:13.789Z,0.90
2022-09-10T00:44:24.567Z,0.90
2022-09-10T00:44:36.265Z,0.80
2022-09-10T00:44:47.988Z,0.80
2022-09-10T00:44:58.794Z,0.90
2022-09-10T00:45:09.537Z,0.90
2022-09-10T00:45:21.367Z,1.10
2022-09-10T00:45:32.205Z,1.00
2022-09-10T00:45:43.971Z,0.80
2022-09-10T00:45:54.783Z,0.70
2022-09-10T00:46:07.718Z,0.70
2022-09-10T00:46:18.718Z,0.70
2022-09-10T00:46:29.458Z,0.70
2022-09-10T00:46:40.218Z,0.80
2022-09-10T00:46:50.986Z,0.90
2022-09-10T00:47:01.780Z,0.70
2022-09-10T00:47:12.559Z,0.60
2022-09-10T00:47:23.298Z,0.50
2022-09-10T00:47:34.053Z,0.70
2022-09-10T00:47:44.797Z,0.80
2022-09-10T00:47:55.581Z,0.80
2022-09-10T00:48:07.278Z,0.80
2022-09-10T00:48:20.266Z,0.80
2022-09-10T00:48:31.082Z,1.00
2022-09-10T00:48:42.809Z,1.00
2022-09-10T00:48:55.521Z,0.80
2022-09-10T00:49:07.270Z,0.70
2022-09-10T00:49:18.029Z,0.80
2022-09-10T00:49:28.798Z,0.80
2022-09-10T00:49:41.001Z,1.00
2022-09-10T00:49:53.448Z,0.80
2022-09-10T00:50:04.220Z,0.60
2022-09-10T00:50:15.951Z,1.00
2022-09-10T00:50:27.634Z,1.00
2022-09-10T00:50:38.377Z,1.10
2022-09-10T00:50:50.095Z,0.90
2022-09-10T00:51:00.839Z,0.90
2022-09-10T00:51:12.573Z,0.90
2022-09-10T00:51:25.030Z,0.90
2022-09-10T00:51:37.009Z,0.70
2022-09-10T00:51:47.761Z,0.70
2022-09-10T00:51:59.480Z,0.60
2022-09-10T00:52:10.219Z,0.80
2022-09-10T00:52:23.200Z,1.00
2022-09-10T00:52:38.900Z,1.00
2022-09-10T00:52:51.300Z,0.70
2022-09-10T00:53:02.079Z,0.70
2022-09-10T00:53:14.570Z,0.70
2022-09-10T00:53:27.096Z,0.80
2022-09-10T00:53:37.859Z,0.90
2022-09-10T00:53:48.592Z,0.80
2022-09-10T00:53:59.370Z,0.70
2022-09-10T00:54:13.080Z,0.60
2022-09-10T00:54:24.819Z,0.50
2022-09-10T00:54:36.562Z,0.50
2022-09-10T00:54:48.331Z,0.60
2022-09-10T00:54:59.101Z,0.70
2022-09-10T00:55:10.744Z,0.60
2022-09-10T00:55:21.541Z,0.60
2022-09-10T00:55:32.313Z,0.50
2022-09-10T00:55:43.039Z,0.70
2022-09-10T00:55:55.493Z,0.90
2022-09-10T00:56:07.941Z,0.80
2022-09-10T00:56:18.725Z,0.70
2022-09-10T00:56:29.473Z,0.90
2022-09-10T00:56:40.207Z,0.90
2022-09-10T00:56:50.992Z,0.80
2022-09-10T00:57:04.209Z,0.80
2022-09-10T00:57:15.941Z,0.80
2022-09-10T00:57:28.395Z,0.90
2022-09-10T00:57:40.877Z,0.70
2022-09-10T00:57:52.561Z,0.70
2022-09-10T00:58:05.794Z,0.70
2022-09-10T00:58:16.541Z,0.80
2022-09-10T00:58:27.292Z,0.80
2022-09-10T00:58:39.896Z,0.90
2022-09-10T00:58:51.680Z,0.80
2022-09-10T00:59:02.461Z,0.90
2022-09-10T00:59:13.214Z,0.90
2022-09-10T00:59:23.994Z,1.00
2022-09-10T00:59:35.750Z,1.10
2022-09-10T00:59:46.486Z,1.10
2022-09-10T00:59:57.249Z,1.10
2022-09-10T01:00:07.992Z,0.90
2022-09-10T01:00:18.733Z,0.90
2022-09-10T01:00:29.523Z,0.60
2022-09-10T01:00:40.295Z,0.70
2022-09-10T01:00:51.052Z,0.60
2022-09-10T01:01:02.791Z,0.80
2022-09-10T01:01:13.674Z,0.70
2022-09-10T01:01:24.424Z,0.60
2022-09-10T01:01:36.183Z,0.70
2022-09-10T01:01:47.905Z,0.80
2022-09-10T01:02:00.169Z,0.90
2022-09-10T01:02:10.952Z,0.80
2022-09-10T01:02:22.762Z,0.90
2022-09-10T01:02:35.204Z,0.90
2022-09-10T01:02:45.972Z,1.00
2022-09-10T01:02:56.832Z,1.10
2022-09-10T01:03:07.564Z,0.90
2022-09-10T01:03:20.466Z,0.90
2022-09-10T01:03:33.215Z,0.60
2022-09-10T01:03:45.944Z,0.60
2022-09-10T01:03:58.377Z,0.70
2022-09-10T01:04:10.090Z,0.60
2022-09-10T01:04:20.874Z,0.60
2022-09-10T01:04:32.594Z,0.60
2022-09-10T01:04:44.305Z,0.70
2022-09-10T01:04:55.081Z,0.70
2022-09-10T01:05:05.825Z,0.70
2022-09-10T01:05:16.588Z,0.60
2022-09-10T01:05:29.718Z,0.60
2022-09-10T01:05:42.184Z,0.60
2022-09-10T01:05:52.945Z,0.60
2022-09-10T01:06:03.695Z,0.70
2022-09-10T01:06:16.814Z,0.70
2022-09-10T01:06:28.578Z,0.70
2022-09-10T01:06:39.356Z,0.60
2022-09-10T01:06:50.135Z,0.40
2022-09-10T01:07:01.859Z,0.50
2022-09-10T01:07:13.595Z,0.60
2022-09-10T01:07:24.345Z,0.80
2022-09-10T01:07:35.095Z,0.80
2022-09-10T01:07:47.527Z,0.70
2022-09-10T01:07:58.455Z,0.70
2022-09-10T01:08:09.246Z,0.70
2022-09-10T01:08:20.009Z,0.80
2022-09-10T01:08:30.793Z,0.80
2022-09-10T01:08:41.525Z,0.80
2022-09-10T01:08:53.216Z,0.60
2022-09-10T01:09:03.954Z,0.80
2022-09-10T01:09:16.393Z,0.80
2022-09-10T01:09:28.806Z,0.70
2022-09-10T01:09:39.589Z,0.90
2022-09-10T01:09:51.528Z,1.10
2022-09-10T01:10:06.298Z,1.20
2022-09-10T01:10:17.046Z,1.00
2022-09-10T01:10:27.796Z,0.70
2022-09-10T01:10:39.514Z,0.70
2022-09-10T01:10:51.256Z,0.90
2022-09-10T01:11:02.990Z,1.10
2022-09-10T01:11:13.746Z,0.90
2022-09-10T01:11:25.466Z,0.80
2022-09-10T01:11:36.216Z,0.70
2022-09-10T01:11:47.005Z,0.80
2022-09-10T01:11:57.779Z,1.00
2022-09-10T01:12:08.556Z,0.90
2022-09-10T01:12:20.277Z,0.80
2022-09-10T01:12:35.693Z,0.80
2022-09-10T01:12:47.720Z,0.70
2022-09-10T01:12:59.947Z,0.80
2022-09-10T01:13:12.163Z,0.80
2022-09-10T01:13:22.912Z,0.90
2022-09-10T01:13:34.611Z,0.90
2022-09-10T01:13:45.382Z,1.00
2022-09-10T01:13:57.118Z,1.10
2022-09-10T01:14:07.867Z,1.10
2022-09-10T01:14:18.641Z,0.90
2022-09-10T01:14:30.857Z,0.80
2022-09-10T01:14:43.058Z,0.80
2022-09-10T01:14:55.277Z,0.70
2022-09-10T01:15:06.017Z,0.70
2022-09-10T01:15:16.778Z,0.70
2022-09-10T01:15:27.520Z,0.70
2022-09-10T01:15:38.261Z,0.60
2022-09-10T01:15:49.958Z,0.60
2022-09-10T01:16:00.775Z,1.00
2022-09-10T01:16:14.029Z,1.00
2022-09-10T01:16:27.254Z,0.80
2022-09-10T01:16:39.230Z,0.70
2022-09-10T01:16:51.468Z,0.90
2022-09-10T01:17:03.258Z,1.00
2022-09-10T01:17:14.958Z,0.80
2022-09-10T01:17:27.169Z,0.70
2022-09-10T01:17:37.922Z,0.70
2022-09-10T01:17:48.679Z,0.70
2022-09-10T01:18:01.139Z,1.00
2022-09-10T01:18:12.869Z,1.00
2022-09-10T01:18:24.630Z,0.80
2022-09-10T01:18:36.488Z,0.60
2022-09-10T01:18:47.286Z,0.60
2022-09-10T01:18:59.001Z,0.60
2022-09-10T01:19:11.504Z,0.80
2022-09-10T01:19:23.219Z,0.80
2022-09-10T01:19:35.652Z,1.00
2022-09-10T01:19:47.367Z,1.00
2022-09-10T01:19:58.101Z,0.80
2022-09-10T01:20:08.860Z,0.80
2022-09-10T01:20:20.578Z,0.90
2022-09-10T01:20:31.413Z,1.00
2022-09-10T01:20:42.191Z,1.00
2022-09-10T01:20:53.890Z,0.90
2022-09-10T01:21:04.659Z,0.80
2022-09-10T01:21:16.387Z,0.70
2022-09-10T01:21:27.209Z,0.70
2022-09-10T01:21:37.959Z,0.70
2022-09-10T01:21:48.701Z,0.80
2022-09-10T01:21:59.442Z,0.70
2022-09-10T01:22:10.216Z,0.80
2022-09-10T01:22:20.970Z,0.70
2022-09-10T01:22:33.961Z,0.80
2022-09-10T01:22:44.701Z,0.80
2022-09-10T01:22:55.471Z,0.80
2022-09-10T01:23:08.036Z,0.60
2022-09-10T01:23:19.770Z,0.70
2022-09-10T01:23:31.790Z,0.70
2022-09-10T01:23:42.553Z,0.90
2022-09-10T01:23:55.012Z,1.10
2022-09-10T01:24:07.728Z,1.00
2022-09-10T01:24:18.481Z,0.90
2022-09-10T01:24:29.282Z,1.00
2022-09-10T01:24:40.993Z,0.90
2022-09-10T01:24:53.202Z,0.80
2022-09-10T01:25:03.963Z,1.00
2022-09-10T01:25:14.712Z,0.90
2022-09-10T01:25:25.478Z,0.70
2022-09-10T01:25:36.233Z,0.70
2022-09-10T01:25:46.961Z,0.70
2022-09-10T01:25:57.712Z,0.80
2022-09-10T01:26:09.422Z,1.00
2022-09-10T01:26:21.861Z,0.90
2022-09-10T01:26:32.620Z,0.90
2022-09-10T01:26:43.389Z,0.90
2022-09-10T01:26:54.152Z,1.00
2022-09-10T01:27:04.932Z,1.00
2022-09-10T01:27:16.642Z,0.90
2022-09-10T01:27:29.094Z,0.90
2022-09-10T01:27:39.842Z,0.80
2022-09-10T01:27:50.614Z,0.80
2022-09-10T01:28:01.392Z,0.90
2022-09-10T01:28:13.103Z,1.30
2022-09-10T01:28:23.873Z,1.10
2022-09-10T01:28:37.157Z,0.90
2022-09-10T01:28:48.927Z,0.60
2022-09-10T01:28:59.693Z,0.90
2022-09-10T01:29:10.583Z,1.00
2022-09-10T01:29:23.146Z,1.00
2022-09-10T01:29:35.591Z,0.90
2022-09-10T01:29:46.322Z,0.70
2022-09-10T01:29:57.087Z,0.70
2022-09-10T01:30:07.843Z,0.50
2022-09-10T01:30:18.612Z,0.70
2022-09-10T01:30:30.795Z,0.80
2022-09-10T01:30:41.543Z,0.80
2022-09-10T01:30:52.334Z,0.60
2022-09-10T01:31:03.122Z,0.70
2022-09-10T01:31:15.576Z,0.90
2022-09-10T01:31:28.030Z,1.10
2022-09-10T01:31:38.815Z,0.90
2022-09-10T01:31:49.581Z,0.80
2022-09-10T01:32:02.663Z,0.70
2022-09-10T01:32:15.113Z,0.90
2022-09-10T01:32:26.845Z,1.00
2022-09-10T01:32:37.616Z,0.80
2022-09-10T01:32:50.055Z,0.70
2022-09-10T01:33:02.504Z,0.80
2022-09-10T01:33:14.243Z,0.70
2022-09-10T01:33:25.981Z,0.80
2022-09-10T01:33:36.758Z,0.90
2022-09-10T01:33:48.493Z,0.90
2022-09-10T01:33:59.265Z,0.90
2022-09-10T01:34:11.997Z,0.80
2022-09-10T01:34:24.966Z,0.60
2022-09-10T01:34:35.731Z,0.70
2022-09-10T01:34:47.425Z,1.10
2022-09-10T01:34:58.216Z,1.20
2022-09-10T01:35:11.435Z,0.80
2022-09-10T01:35:23.145Z,1.00
2022-09-10T01:35:33.884Z,0.90
2022-09-10T01:35:44.639Z,0.90
2022-09-10T01:35:57.357Z,1.00
2022-09-10T01:36:09.065Z,1.00
2022-09-10T01:36:20.795Z,0.70
2022-09-10T01:36:31.554Z,0.80
2022-09-10T01:36:42.285Z,0.90
2022-09-10T01:36:53.995Z,0.80
2022-09-10T01:37:06.739Z,0.80
2022-09-10T01:37:17.479Z,0.80
2022-09-10T01:37:28.284Z,0.80
2022-09-10T01:37:40.488Z,0.80
2022-09-10T01:37:52.436Z,0.80
2022-09-10T01:38:04.179Z,0.80
2022-09-10T01:38:15.913Z,0.90
2022-09-10T01:38:27.606Z,0.90
2022-09-10T01:38:38.565Z,0.90
2022-09-10T01:38:49.404Z,1.00
2022-09-10T01:39:03.164Z,1.00
2022-09-10T01:39:16.307Z,0.90
2022-09-10T01:39:27.979Z,1.10
2022-09-10T01:39:40.741Z,1.10
2022-09-10T01:39:53.777Z,0.90
2022-09-10T01:40:06.291Z,0.80
2022-09-10T01:40:18.016Z,0.70
2022-09-10T01:40:28.777Z,0.90
2022-09-10T01:40:40.457Z,0.90
2022-09-10T01:40:52.155Z,1.20
2022-09-10T01:41:03.888Z,0.90
2022-09-10T01:41:14.670Z,0.80
2022-09-10T01:41:25.407Z,0.70
2022-09-10T01:41:36.217Z,0.90
2022-09-10T01:41:46.985Z,1.00
2022-09-10T01:41:58.711Z,1.00
2022-09-10T01:42:10.668Z,0.70
2022-09-10T01:42:21.417Z,0.60
2022-09-10T01:42:32.188Z,0.60
2022-09-10T01:42:44.681Z,0.90
2022-09-10T01:42:55.447Z,1.00
2022-09-10T01:43:06.198Z,0.90
2022-09-10T01:43:19.888Z,0.90
2022-09-10T01:43:30.668Z,0.90
2022-09-10T01:43:41.428Z,1.00
2022-09-10T01:43:52.201Z,0.90
2022-09-10T01:44:02.938Z,0.80
2022-09-10T01:44:15.427Z,1.20
2022-09-10T01:44:26.207Z,1.50
2022-09-10T01:44:37.908Z,1.20
2022-09-10T01:44:48.689Z,0.90
2022-09-10T01:45:00.408Z,0.90
2022-09-10T01:45:11.168Z,0.90
2022-09-10T01:45:21.949Z,0.90
2022-09-10T01:45:32.786Z,1.00
2022-09-10T01:45:43.537Z,1.00
2022-09-10T01:45:54.326Z,0.80
2022-09-10T01:46:06.014Z,0.70
2022-09-10T01:46:17.969Z,0.70
2022-09-10T01:46:28.699Z,0.80
2022-09-10T01:46:39.459Z,0.70
2022-09-10T01:46:51.672Z,0.60
2022-09-10T01:47:03.403Z,0.70
2022-09-10T01:47:14.199Z,0.70
2022-09-10T01:47:25.969Z,0.70
2022-09-10T01:47:38.437Z,0.70
2022-09-10T01:47:49.178Z,0.70
2022-09-10T01:47:59.929Z,0.70
2022-09-10T01:48:10.689Z,0.80
2022-09-10T01:48:22.942Z,0.90
2022-09-10T01:48:33.709Z,1.00
2022-09-10T01:48:44.502Z,0.90
2022-09-10T01:48:57.189Z,1.10
2022-09-10T01:49:07.969Z,0.90
2022-09-10T01:49:24.140Z,0.90
2022-09-10T01:49:34.921Z,0.70
2022-09-10T01:49:48.122Z,0.70
2022-09-10T01:49:58.880Z,1.10
2022-09-10T01:50:09.640Z,1.20
2022-09-10T01:50:20.550Z,1.10
2022-09-10T01:50:32.309Z,1.00
2022-09-10T01:50:43.039Z,0.80
2022-09-10T01:50:53.771Z,0.90
2022-09-10T01:51:04.530Z,0.80
2022-09-10T01:51:17.253Z,0.80
2022-09-10T01:51:28.016Z,0.70
2022-09-10T01:51:40.149Z,0.80
2022-09-10T01:51:51.894Z,0.90
2022-09-10T01:52:02.619Z,1.10
2022-09-10T01:52:14.361Z,1.20
2022-09-10T01:52:26.617Z,1.00
2022-09-10T01:52:39.309Z,0.90
2022-09-10T01:52:51.052Z,0.80
2022-09-10T01:53:02.793Z,0.70
2022-09-10T01:53:15.521Z,0.70
2022-09-10T01:53:28.518Z,0.60
2022-09-10T01:53:40.491Z,0.60
2022-09-10T01:53:51.275Z,0.70
2022-09-10T01:54:03.001Z,0.90
2022-09-10T01:54:15.463Z,0.90
2022-09-10T01:54:27.184Z,0.70
2022-09-10T01:54:38.891Z,0.90
2022-09-10T01:54:49.661Z,1.10
2022-09-10T01:55:02.175Z,1.40
2022-09-10T01:55:12.929Z,1.10
2022-09-10T01:55:23.703Z,0.90
2022-09-10T01:55:35.422Z,1.00
2022-09-10T01:55:46.183Z,1.00
2022-09-10T01:55:57.910Z,0.90
2022-09-10T01:56:08.665Z,0.80
2022-09-10T01:56:19.416Z,0.80
2022-09-10T01:56:30.172Z,0.80
2022-09-10T01:56:40.950Z,0.90
2022-09-10T01:56:51.706Z,1.20
2022-09-10T01:57:02.471Z,1.00
2022-09-10T01:57:13.232Z,1.00
2022-09-10T01:57:26.220Z,0.80
2022-09-10T01:57:39.952Z,0.80
2022-09-10T01:57:50.714Z,0.70
2022-09-10T01:58:03.142Z,0.90
2022-09-10T01:58:13.941Z,1.00
2022-09-10T01:58:24.694Z,1.00
2022-09-10T01:58:37.459Z,1.00
2022-09-10T01:58:49.932Z,1.00
2022-09-10T01:59:02.343Z,1.00
2022-09-10T01:59:16.082Z,0.90
2022-09-10T01:59:28.313Z,0.90
2022-09-10T01:59:39.316Z,0.90
2022-09-10T01:59:50.093Z,0.80
2022-09-10T02:00:02.533Z,0.80
2022-09-10T02:00:13.306Z,1.00
2022-09-10T02:00:25.734Z,1.10
2022-09-10T02:00:38.278Z,0.90
2022-09-10T02:00:49.092Z,1.00
2022-09-10T02:01:00.018Z,1.20
2022-09-10T02:01:10.849Z,1.20
2022-09-10T02:01:21.631Z,1.20
2022-09-10T02:01:32.412Z,1.10
2022-09-10T02:01:43.186Z,1.00
2022-09-10T02:01:53.988Z,0.90
2022-09-10T02:02:07.734Z,0.80
2022-09-10T02:02:19.486Z,0.70
2022-09-10T02:02:30.255Z,0.80
2022-09-10T02:02:41.024Z,0.80
2022-09-10T02:02:54.444Z,0.70
2022-09-10T02:03:05.218Z,0.70
2022-09-10T02:03:17.464Z,0.80
2022-09-10T02:03:29.165Z,0.90
2022-09-10T02:03:41.384Z,0.90
2022-09-10T02:03:53.872Z,0.80
2022-09-10T02:04:05.616Z,0.70
2022-09-10T02:04:18.089Z,0.80
2022-09-10T02:04:28.855Z,0.90
2022-09-10T02:04:39.625Z,0.90
2022-09-10T02:04:51.346Z,0.70
2022-09-10T02:05:02.115Z,0.70
2022-09-10T02:05:12.905Z,0.80
2022-09-10T02:05:23.695Z,0.80
2022-09-10T02:05:34.432Z,0.80
2022-09-10T02:05:45.195Z,0.90
2022-09-10T02:05:56.925Z,0.90
2022-09-10T02:06:07.713Z,0.80
2022-09-10T02:06:20.136Z,0.80
2022-09-10T02:06:30.895Z,0.80
2022-09-10T02:06:41.646Z,0.80
2022-09-10T02:06:54.120Z,0.80
2022-09-10T02:07:05.826Z,1.00
2022-09-10T02:07:16.596Z,1.00
2022-09-10T02:07:27.356Z,0.90
2022-09-10T02:07:38.136Z,0.80
2022-09-10T02:07:51.080Z,0.80
2022-09-10T02:08:01.816Z,0.60
2022-09-10T02:08:14.246Z,0.60
2022-09-10T02:08:24.995Z,0.70
2022-09-10T02:08:35.755Z,0.80
2022-09-10T02:08:46.526Z,0.80
2022-09-10T02:08:57.297Z,1.00
2022-09-10T02:09:08.999Z,1.00
2022-09-10T02:09:20.723Z,1.10
2022-09-10T02:09:31.445Z,1.10
2022-09-10T02:09:44.156Z,1.00
2022-09-10T02:09:57.437Z,0.90
2022-09-10T02:10:08.247Z,0.90
2022-09-10T02:10:18.979Z,0.80
2022-09-10T02:10:29.760Z,0.70
2022-09-10T02:10:40.527Z,0.90
2022-09-10T02:10:51.313Z,0.90
2022-09-10T02:11:03.519Z,1.10
2022-09-10T02:11:15.976Z,0.80
2022-09-10T02:11:27.767Z,0.80
2022-09-10T02:11:39.508Z,0.90
2022-09-10T02:11:51.938Z,0.90
2022-09-10T02:12:02.698Z,0.90
2022-09-10T02:12:13.441Z,0.90
2022-09-10T02:12:25.218Z,1.00
2022-09-10T02:12:35.957Z,0.90
2022-09-10T02:12:47.658Z,1.20
2022-09-10T02:12:59.419Z,1.30
2022-09-10T02:13:11.617Z,0.90
2022-09-10T02:13:22.348Z,0.90
2022-09-10T02:13:35.582Z,0.90
2022-09-10T02:13:46.491Z,0.80
2022-09-10T02:13:57.228Z,1.00
2022-09-10T02:14:07.979Z,0.90
2022-09-10T02:14:19.683Z,0.80
2022-09-10T02:14:30.478Z,0.60
2022-09-10T02:14:41.525Z,0.70
2022-09-10T02:14:53.967Z,0.80
2022-09-10T02:15:04.719Z,0.90
2022-09-10T02:15:17.189Z,0.80
2022-09-10T02:15:28.927Z,0.80
2022-09-10T02:15:39.679Z,0.70
2022-09-10T02:15:50.440Z,1.00
2022-09-10T02:16:02.956Z,1.10
2022-09-10T02:16:14.715Z,1.20
2022-09-10T02:16:25.522Z,1.00
2022-09-10T02:16:37.810Z,0.80
2022-09-10T02:16:48.630Z,0.90
2022-09-10T02:17:00.320Z,0.80
2022-09-10T02:17:11.090Z,0.80
2022-09-10T02:17:21.859Z,1.00
2022-09-10T02:17:35.115Z,1.00
2022-09-10T02:17:46.803Z,1.00
2022-09-10T02:17:57.560Z,0.80
2022-09-10T02:18:08.311Z,0.80
2022-09-10T02:18:20.047Z,0.70
2022-09-10T02:18:32.274Z,0.70
2022-09-10T02:18:44.001Z,0.70
2022-09-10T02:18:55.732Z,0.60
2022-09-10T02:19:06.521Z,0.80
2022-09-10T02:19:17.305Z,0.70
2022-09-10T02:19:30.011Z,0.90
2022-09-10T02:19:40.755Z,0.80
2022-09-10T02:19:51.544Z,1.00
2022-09-10T02:20:02.300Z,1.00
2022-09-10T02:20:14.014Z,0.80
2022-09-10T02:20:27.760Z,0.80
2022-09-10T02:20:38.540Z,1.10
2022-09-10T02:20:50.264Z,1.20
2022-09-10T02:21:01.764Z,1.00
2022-09-10T02:21:12.510Z,1.00
2022-09-10T02:21:24.213Z,1.10
2022-09-10T02:21:36.942Z,0.90
2022-09-10T02:21:47.760Z,0.70
2022-09-10T02:22:00.201Z,0.70
2022-09-10T02:22:11.974Z,0.90
2022-09-10T02:22:25.190Z,0.70
2022-09-10T02:22:35.912Z,1.00
2022-09-10T02:22:46.652Z,1.20
2022-09-10T02:22:58.367Z,1.20
2022-09-10T02:23:10.114Z,0.80
2022-09-10T02:23:20.851Z,0.70
2022-09-10T02:23:31.625Z,0.80
2022-09-10T02:23:44.076Z,0.80
2022-09-10T02:23:55.845Z,0.90
2022-09-10T02:24:08.811Z,1.10
2022-09-10T02:24:22.454Z,1.20
2022-09-10T02:24:33.229Z,1.20
2022-09-10T02:24:43.998Z,1.00
2022-09-10T02:24:54.743Z,0.90
2022-09-10T02:25:05.492Z,0.90
2022-09-10T02:25:16.231Z,1.00
2022-09-10T02:25:27.006Z,1.00
2022-09-10T02:25:37.760Z,0.80
2022-09-10T02:25:49.515Z,0.60
2022-09-10T02:26:00.282Z,0.60
2022-09-10T02:26:11.056Z,0.60
2022-09-10T02:26:21.828Z,0.70
2022-09-10T02:26:33.575Z,0.60
2022-09-10T02:26:45.272Z,0.60
2022-09-10T02:26:57.974Z,0.70
2022-09-10T02:27:08.743Z,0.90
2022-09-10T02:27:19.523Z,0.90
2022-09-10T02:27:30.314Z,0.80
2022-09-10T02:27:42.049Z,0.80
2022-09-10T02:27:53.793Z,0.80
2022-09-10T02:28:04.576Z,0.70
2022-09-10T02:28:16.283Z,0.70
2022-09-10T02:28:27.044Z,0.60
2022-09-10T02:28:37.830Z,0.70
2022-09-10T02:28:49.524Z,0.70
2022-09-10T02:29:00.274Z,0.80
2022-09-10T02:29:11.992Z,1.10
2022-09-10T02:29:22.733Z,1.00
2022-09-10T02:29:33.526Z,0.90
2022-09-10T02:29:44.294Z,0.80
2022-09-10T02:29:57.004Z,0.80
2022-09-10T02:30:07.754Z,0.90
2022-09-10T02:30:18.484Z,0.90
2022-09-10T02:30:29.268Z,0.90
2022-09-10T02:30:41.734Z,0.90
2022-09-10T02:30:53.454Z,0.80
2022-09-10T02:31:05.179Z,1.00
2022-09-10T02:31:18.355Z,1.10
2022-09-10T02:31:29.155Z,0.90
2022-09-10T02:31:39.923Z,0.80
2022-09-10T02:31:50.735Z,0.90
2022-09-10T02:32:03.856Z,0.90
2022-09-10T02:32:14.605Z,0.80
2022-09-10T02:32:25.375Z,0.80
2022-09-10T02:32:38.318Z,0.80
2022-09-10T02:32:49.836Z,0.80